TFM - Tactical Decision Aid (Experimental) INFO Settings

ID: Runway Winds: METAR Board: Map:

Kclt - Charlotte-Douglas Intl

Updated at: 0827 UTC 24 Oct 2014
Latest TAF at: 0544 UTC 24 Oct 2014

TAF Board

Time0752Z24/09Z24/10Z24/11Z24/12Z24/13Z24/14Z24/15Z24/16Z24/17Z24/18Z24/19Z24/20Z24/21Z
TypeOBSPRVLPRVLPRVLPRVLPRVLPRVLPRVLPRVLPRVLPRVLPRVLPRVLPRVL
VIS10>6>6>6>6>6>6>6>6>6>6>6>6>6
CIG250250250250250250250250------------
CoverBKNBKNBKNBKNBKNBKNBKNBKNSCTSCTSCTSCTSCTSCT
FltCat--VFRVFRVFRVFRVFRVFRVFRVFRVFRVFRVFRVFRVFR
WX----------------------------
WDir260350350350350350350350240240240240240240
WSpd33333333333333
WGst----------------------------
TAF
KCLT 240544Z 2406/2506 35003KT P6SM SCT180 BKN250
  FM241600 24003KT P6SM SCT160


METAR
KCLT 240752Z 26003KT 10SM BKN250 07/05 A3005 RMK AO2 SLP174 T00670050

TAF/METAR Board Legend

Hazard VFR MVFR IFR LIFR
Visibility (sm) >5 3≤X≤5 1≤X<3 <1
Ceiling (100 ft) >30 10≤X≤30 5≤X<10 <5
Wind Speed (kt) <10 10≤X<20 20≤X<30 ≥30
Wind Gust (kt) <15 15≤X<25 25≤X<35 ≥35
Weather No Wx Reported VCTS,-TS,-FZRA TS,FZRA +TS,+FZRA




Page loaded:  08:27 UTC  |   01:27 AM Pacific  |   02:27 AM Mountain  |   03:27 AM Central  |   04:27 AM Eastern

 

ADVISORIES

FORECASTS

FORECASTS

OBSERVATIONS

USER TOOLS

ABOUT US